Terminal Aerodrome Forecast
Issued by NWS

Home | Current Version | Previous Version | Text Only | Print | Product List | Glossary On
Versions: 1 2 3 4 5 6 7 8 9 10 11 12
000
FTUS43 KGRR 230535
TAFJXN
TAF
KJXN 230535Z 2306/2406 17006KT P6SM VCSH OVC045
     FM231300 13006KT 4SM -SHRA BR SCT025 OVC035
     FM231900 13008KT 3SM -SHRA BR OVC005
     FM240100 25012KT 2SM -SHRA BR OVC005
     FM240500 25014G22KT 6SM -SHRA BR OVC015=

USA.gov is the U.S. government's official web portal to all federal, state and local government web resources and services.